Terminal Aerodrome Forecast
Issued by NWS

Home | Current Version | Previous Version | Text Only | Print | Product List | Glossary On
Versions: 1 2 3 4 5 6 7 8 9 10 11 12 13 14
719
FTAK31 PAJN 301130
TAFAKT
TAF
PAKT 301130Z 3012/0112 16015KT P6SM OVC040
     FM301500 14015G25KT P6SM -RA SCT020 OVC040
     FM301700 15020G30KT 4SM RA BR OVC010 WS020/14045KT
     FM302100 15025G38KT 2SM +RA BR OVC008 WS020/15050KT
     FM010200 16015G25KT 4SM RA BR BKN010 OVC020 WS020/17040KT
     FM010800 15010G20KT 6SM -RA BR BKN015 OVC025
      AMD LTD TO CLD VIS AND WIND 3012/3015=

USA.gov is the U.S. government's official web portal to all federal, state and local government web resources and services.